• Join FlightAware (Why Join?)
  • Login
  • US Flag 
06:22PM EDT


 

Airport Tracker/Info


-or-


 

Live Flight TrackerFlight Track Log ✈ CPZ5718 ✈ 28-Jun-2013 ✈ KALB - KMSP

Flight Track Log - Related Links

Times and Time Zones

All times are in EDT time to prevent confusion due to time zone crossing. See the CPZ5718 flight status page for this flight to view local times or setup timezone preferences in your user account.

Time Position Orientation Groundspeed Altitude Reporting Facility
EDT Latitude Longitude Course Direction KTS MPH feet Rate Location/Type
06:48AM 42.7278 -73.8081 223° Southwest 146 168 1,300  Level Boston Center
06:48AM 42.7028 -73.8047 174° South 148 170 2,200 1,560 Climbing Boston Center
06:49AM 42.7106 -73.8586 281° West 227 261 3,900 1,800 Climbing Boston Center
06:50AM 42.7333 -74.2370 270° West  Level FlightAware Approximate
06:50AM 42.7475 -73.8847 333° Northwest 275 316 5,300  Level Boston Center
06:51AM 42.6927 -74.3603 220° Southwest  Level FlightAware Approximate
06:51AM 42.8117 -73.9372 329° Northwest 281 323 7,600  Level Boston Center
06:52AM 42.6103 -74.4530 220° Southwest  Level FlightAware Approximate
06:52AM 42.7875 -74.0217 249° West 206 237 10,000  Level Boston Center
06:53AM 42.5304 -74.5495 223° Southwest  Level FlightAware Approximate
06:53AM 42.7383 -74.1022 230° Southwest 223 257 11,900  Level Boston Center
06:54AM 42.6847 -74.1997 233° Southwest 289 333 13,900 1,800 Climbing Boston Center
06:55AM 42.6375 -74.2886 234° Southwest 322 371 15,600 1,680 Climbing Boston Center
06:56AM 42.5753 -74.3997 233° Southwest 341 392 17,300 1,620 Climbing Boston Center
06:57AM 42.5300 -74.4828 234° Southwest 341 392 18,900 1,620 Climbing Boston Center
06:58AM 42.4653 -74.6072 235° Southwest 358 412 20,600 1,500 Climbing Boston Center
06:59AM 42.4025 -74.7147 232° Southwest 364 419 22,000 1,380 Climbing Boston Center
07:00AM 42.3397 -74.8278 233° Southwest 375 432 23,400 1,260 Climbing Boston Center
07:01AM 42.2725 -74.9486 233° Southwest 388 447 24,600 1,200 Climbing Boston Center
07:03AM 42.1056 -75.2433 233° Southwest 400 460 27,500 1,080 Climbing New York Center
07:04AM 42.0425 -75.3703 236° Southwest 411 473 28,300 720 Climbing New York Center
07:05AM 41.9850 -75.5086 241° Southwest 419 482 29,000 360 Climbing New York Center
07:06AM 41.9275 -75.6439 240° Southwest 424 488 29,100 480 Climbing New York Center
07:07AM 41.8717 -75.7817 241° Southwest 424 488 30,000 660 Climbing New York Center
07:08AM 41.8139 -75.9192 241° Southwest 424 488 30,500 840 Climbing New York Center
07:09AM 41.7558 -76.0567 241° Southwest 424 488 31,700 960 Climbing New York Center
07:10AM 41.6994 -76.1939 241° Southwest 424 488 32,500 720 Climbing New York Center
07:11AM 41.6433 -76.3308 241° Southwest 424 488 33,200 600 Climbing New York Center
07:12AM 41.5847 -76.4675 240° Southwest 429 494 33,800 780 Climbing New York Center
07:13AM 41.5331 -76.5878 240° Southwest 429 494 34,800 840 Climbing New York Center
07:14AM 41.4764 -76.7214 241° Southwest 424 488 35,600 540 Climbing New York Center
07:15AM 41.4200 -76.8492 240° Southwest 413 475 35,900 180 Climbing New York Center
07:16AM 41.3633 -76.9767 239° Southwest 407 468 36,000  Climbing New York Center
07:17AM 41.3064 -77.1097 240° Southwest 407 468 36,000  Level New York Center
07:18AM 41.2472 -77.2422 239° Southwest 407 468 36,000  Level New York Center
07:19AM 41.2244 -77.3889 258° West 406 467 36,000  Level New York Center
07:21AM 41.2372 -77.6781 273° West 427 491 36,000  Level Cleveland Center
07:22AM 41.2450 -77.8186 274° West 433 498 36,000  Level Cleveland Center
07:23AM 41.2508 -77.9758 273° West 433 498 36,000  Level Cleveland Center
07:24AM 41.2583 -78.1275 274° West 428 493 36,000  Level Cleveland Center
07:25AM 41.2658 -78.2847 274° West 428 493 36,000  Level Cleveland Center
07:26AM 41.2728 -78.4392 273° West 423 487 36,000  Level Cleveland Center
07:27AM 41.2781 -78.6158 272° West 423 487 36,000  Level Cleveland Center
07:28AM 41.2850 -78.7731 273° West 423 487 36,000  Level Cleveland Center
07:29AM 41.2914 -78.9250 273° West 423 487 36,000  Level Cleveland Center
07:30AM 41.2956 -79.0797 272° West 423 487 36,000  Level Cleveland Center
07:31AM 41.2997 -79.2372 272° West 423 487 36,000  Level Cleveland Center
07:32AM 41.3056 -79.3892 273° West 418 481 36,000  Level Cleveland Center
07:33AM 41.3111 -79.5436 273° West 418 481 36,000  Level Cleveland Center
07:34AM 41.3144 -79.7042 272° West 423 487 36,000  Level Cleveland Center
07:35AM 41.3197 -79.8614 273° West 423 487 36,000  Level Cleveland Center
07:36AM 41.3250 -80.0136 273° West 418 481 36,000  Level Cleveland Center
07:37AM 41.3275 -80.1683 271° West 418 481 36,000  Level Cleveland Center
07:38AM 41.3322 -80.3261 272° West 423 487 36,000  Level Cleveland Center
07:39AM 41.3344 -80.4808 271° West 423 487 36,000  Level Cleveland Center
07:40AM 41.3367 -80.6328 271° West 423 487 36,000  Level Cleveland Center
07:41AM 41.3406 -80.7878 272° West 423 487 36,000  Level Cleveland Center
07:42AM 41.3422 -80.9456 271° West 423 487 36,000  Level Cleveland Center
07:43AM 41.3439 -81.1031 271° West 423 487 36,000  Level Cleveland Center
07:44AM 41.3536 -81.2525 275° West 418 481 36,000  Level Cleveland Center
07:45AM 41.3922 -81.3969 290° West 418 481 36,000  Level Cleveland Center
07:46AM 41.4347 -81.5386 292° West 418 481 36,000  Level Cleveland Center
07:47AM 41.4772 -81.6833 291° West 418 481 36,000  Level Cleveland Center
07:48AM 41.5156 -81.8256 290° West 411 473 36,000  Level Cleveland Center
07:49AM 41.5556 -81.9678 291° West 411 473 36,000  Level Cleveland Center
07:50AM 41.5933 -82.1075 290° West 402 463 36,000  Level Cleveland Center
07:51AM 41.6331 -82.2500 290° West 402 463 36,000  Level Cleveland Center
07:52AM 41.6686 -82.3789 290° West 402 463 36,000  Level Cleveland Center
07:53AM 41.7081 -82.5189 291° West 407 468 36,000  Level Cleveland Center
07:54AM 41.7453 -82.6592 290° West 407 468 36,000  Level Cleveland Center
07:55AM 41.7822 -82.7997 289° West 407 468 36,000  Level Cleveland Center
07:56AM 41.8231 -82.9461 291° West 407 468 36,000  Level Cleveland Center
07:57AM 41.8597 -83.0839 290° West 407 468 36,000  Level Cleveland Center
07:58AM 41.8981 -83.2278 290° West 407 468 36,000  Level Cleveland Center
07:59AM 41.9383 -83.3747 290° West 412 474 36,000  Level Cleveland Center
08:00AM 41.9764 -83.5300 288° West 407 468 36,000  Level Cleveland Center
08:01AM 42.0106 -83.6544 290° West 407 468 36,000  Level Cleveland Center
08:02AM 42.0483 -83.7961 290° West 407 468 36,000  Level Cleveland Center
08:03AM 42.0878 -83.9522 289° West 407 468 36,000  Level Cleveland Center
08:04AM 42.1250 -84.0969 289° West 407 468 36,000  Level Cleveland Center
08:05AM 42.1622 -84.2392 289° West 407 468 36,000  Level Cleveland Center
08:06AM 42.1994 -84.3786 290° West 407 468 36,000  Level Cleveland Center
08:07AM 42.2344 -84.5181 289° West 407 468 36,000  Level Cleveland Center
08:08AM 42.2536 -84.5831 292° West 401 461 36,000  Level Chicago Center
08:09AM 42.2894 -84.7244 289° West 400 460 36,000  Level Chicago Center
08:10AM 42.3244 -84.8661 289° West 399 459 36,000  Level Chicago Center
08:11AM 42.3592 -85.0072 288° West 399 459 36,000  Level Chicago Center
08:12AM 42.3947 -85.1481 289° West 397 457 36,000  Level Chicago Center
08:13AM 42.4292 -85.2908 288° West 398 458 36,000  Level Chicago Center
08:14AM 42.4708 -85.4619 288° West 399 459 36,000  Level Chicago Center
08:15AM 42.5058 -85.6028 289° West 396 456 36,000  Level Chicago Center
08:16AM 42.5394 -85.7422 288° West 391 450 36,000  Level Chicago Center
08:17AM 42.5728 -85.8856 288° West 397 457 36,000  Level Chicago Center
08:18AM 42.6067 -86.0269 288° West 394 453 36,000  Level Chicago Center
08:19AM 42.6400 -86.1692 288° West 393 452 36,000  Level Chicago Center
08:20AM 42.6744 -86.3111 288° West 393 452 36,000  Level Chicago Center
08:21AM 42.7119 -86.4781 287° West 386 444 36,000  Level Chicago Center
08:22AM 42.7458 -86.6175 288° West 386 444 36,000  Level Chicago Center
08:23AM 42.7769 -86.7581 287° West 388 447 36,000  Level Chicago Center
08:24AM 42.8100 -86.8986 288° West 389 448 36,000  Level Chicago Center
08:25AM 42.8417 -87.0372 287° West 384 442 36,000  Level Chicago Center
08:26AM 42.8731 -87.1786 287° West 389 448 36,000  Level Chicago Center
08:27AM 42.9250 -87.3100 298° West 395 455 36,000  Level Chicago Center
08:28AM 42.9892 -87.4511 302° West 384 442 36,000  Level Chicago Center
08:29AM 43.0447 -87.5764 301° West 385 443 36,000  Level Chicago Center
08:30AM 43.1008 -87.7017 302° West 385 443 36,000  Level Chicago Center
08:31AM 43.1675 -87.8475 302° West 385 443 36,000  Level Chicago Center
08:32AM 43.2239 -87.9750 301° West 390 449 36,000  Level Chicago Center
08:33AM 43.2800 -88.1019 301° West 387 445 36,000  Level Chicago Center
08:34AM 43.3364 -88.2294 301° West 389 448 36,000  Level Chicago Center
08:35AM 43.3914 -88.3544 301° West 383 441 36,000  Level Chicago Center
08:36AM 43.4525 -88.4917 302° West 393 452 36,000  Level Chicago Center
08:37AM 43.5097 -88.6186 302° West 392 451 36,000  Level Chicago Center
08:39AM 43.5617 -88.7461 299° West 380 437 36,000  Level Chicago Center
08:40AM 43.6169 -88.8731 301° West 384 442 36,000  Level Chicago Center
08:41AM 43.6711 -89.0011 300° West 386 444 36,000  Level Chicago Center
08:42AM 43.7353 -89.1489 301° West 384 442 36,000  Level Chicago Center
08:43AM 43.7883 -89.2772 300° West 382 440 36,000  Level Chicago Center
08:44AM 43.8431 -89.4047 301° West 384 442 36,000  Level Chicago Center
08:45AM 43.8956 -89.5314 300° West 381 438 36,000  Level Chicago Center
08:46AM 43.9486 -89.6589 300° West 380 437 36,000 -360 Level Chicago Center
08:47AM 44.0031 -89.7844 301° West 379 436 35,300 -960 Descending Chicago Center
08:48AM 44.0664 -89.9356 300° West 386 444 34,100 -660 Descending Chicago Center
08:49AM 44.1292 -90.0606 305° West 391 450 34,000 -60 Descending Chicago Center
08:50AM 44.2086 -90.2022 308° West 395 455 34,000  Level Minneapolis Center
08:51AM 44.2761 -90.3236 308° West 398 458 34,000  Level Minneapolis Center
08:52AM 44.3325 -90.4558 301° West 398 458 34,000  Level Minneapolis Center
08:53AM 44.3958 -90.6114 300° West 395 455 34,000  Level Minneapolis Center
08:54AM 44.4497 -90.7461 299° West 396 456 34,000  Level Minneapolis Center
08:55AM 44.5022 -90.8819 298° West 395 455 34,000  Level Minneapolis Center
08:56AM 44.5589 -91.0194 300° West 394 453 34,000 -300 Level Minneapolis Center
08:57AM 44.6108 -91.1547 298° West 396 456 33,400 -1,560 Descending Minneapolis Center
08:58AM 44.6644 -91.2883 299° West 396 456 30,800 -2,400 Descending Minneapolis Center
08:59AM 44.7172 -91.4256 298° West 398 458 28,000 -2,820 Descending Minneapolis Center
09:01AM 44.7856 -91.5997 299° West 418 481 24,500 -3,420 Descending Minneapolis Center
09:02AM 44.8517 -91.7700 299° West 419 482 21,100 -2,700 Descending Minneapolis Center
09:03AM 44.8911 -91.8769 298° West 399 459 19,000 -2,520 Descending Minneapolis Center
09:04AM 44.9497 -92.0264 299° West 366 421 15,900 -2,700 Descending Minneapolis Center
09:05AM 44.9958 -92.1486 298° West 354 407 13,500 -2,400 Descending Minneapolis Center
09:06AM 45.0389 -92.2669 297° West 343 395 11,100 -1,260 Descending Minneapolis Center
09:07AM 45.0317 -92.3997 266° West 344 396 11,000 -600 Descending Minneapolis Center
09:08AM 44.9786 -92.5203 238° Southwest 299 344 9,900 -1,200 Descending Minneapolis Center
09:09AM 44.9325 -92.6114 234° Southwest 288 331 8,600 -1,320 Descending Minneapolis Center
09:10AM 44.8878 -92.7011 235° Southwest 281 323 7,300 -1,200 Descending Minneapolis Center
09:11AM 44.8444 -92.7878 235° Southwest 273 314 6,200 -1,380 Descending Minneapolis Center
09:12AM 44.8014 -92.8728 234° Southwest 268 308 4,500 -1,080 Descending Minneapolis Center
09:13AM 44.7947 -92.9633 264° West 226 260 4,000 -480 Descending Minneapolis Center
09:14AM 44.8069 -93.0219 286° West 157 181 3,600 -420 Descending Minneapolis Center